Fairhope, AL (36533)

4:14 AM CST on December 28, 2014 (GMT -0600)
CR-48 at CR-33 | Change Station
CLOSE
Current Station
Personal Weather Station
Location: Fairhope, AL
Elevation: 95 ft
Nearby Weather Stations

Elev 95 ft 30.52 °N, 87.82 °W | Updated 14 seconds ago

Overcast
Overcast
69.4 °F
Feels Like 69.4 °F
N
6.9
Wind Variable Wind from South
Gusts 6.9 mph

Today
High -- | Low -- °F
--% Chance of Precip.
Yesterday
High -- | Low -- °F
Precip. -- in
6:47 AM 4:58 PM
Waxing Crescent, 46% visible
Pressure 30.05 in
Visibility 7.0 miles
Clouds Overcast 300 ft
Dew Point 68 °F
Humidity 95%
Rainfall 0.00 in
Snow Depth Not available.
UV 0 out of 12
Pollen .50 out of 12
Air Quality Not available.
Flu Activity Not available.
METAR KCQF 280955Z AUTO 17010KT 7SM OVC003 20/20 A3005 RMK AO2

More Conditions Fewer Conditions

Pressure 30.05 in
Visibility 7.0 miles
Clouds Overcast 300 ft
Dew Point 68 °F
Humidity 95%
Rainfall 0.00 in
Snow Depth Not available.
UV 0 out of 12
Pollen .50 out of 12
Air Quality Not available.
Flu Activity Not available.
METAR KCQF 280955Z AUTO 17010KT 7SM OVC003 20/20 A3005 RMK AO2

More Conditions Fewer Conditions

10-Day Weather Forecast

Almanac

Astronomy

Dec. 28, 2014 Rise Set
Actual Time
Civil Twilight
Nautical Twilight
Astronomical Twilight
Moon
Length of Visible Light
Length of Day
Tomorrow will be .
, % of the Moon is Illuminated

Today's Extremes

State Highs State Lows

Community

WunderPhotos

Upload Photos

1,781,207 photos uploaded!

WunderBlogs® & News

Nearby

Air Quality

  Air Quality AQ Index Pollutant
Not available.

Snow Depth

Station Depth Elevation

Earthquake Activity

City Distance Mag. Time & Date
Minimum magnitude displayed is 2.5.

Coastal Water Temperatures

Place Temperature

Nearby Weather Stations